Time;durP1;ratioP1;P1;durP2;ratioP2;P2;SDS_P1;SDS_P2;PMS_P1;PMS_P2;Temp;Humidity;BMP_temperature;BMP_pressure;BME280_temperature;BME280_humidity;BME280_pressure;Samples;Min_cycle;Max_cycle;Signal;HPM_P1;HPM_P2
2023/03/23 00:02:05;;;;;;;4.33;2.90;;;20.60;41.40;;;;;;5047555;28;20500;-45
2023/03/23 00:04:31;;;;;;;2.90;2.70;;;20.60;41.50;;;;;;5050609;28;20438;-50
2023/03/23 00:06:57;;;;;;;3.00;2.23;;;20.60;41.60;;;;;;5048239;28;20593;-46
2023/03/23 00:09:24;;;;;;;3.00;2.70;;;20.40;41.50;;;;;;5044747;28;20219;-46
2023/03/23 00:11:50;;;;;;;2.90;2.70;;;20.40;41.80;;;;;;5045901;28;20263;-46
2023/03/23 00:14:22;;;;;;;3.77;3.00;;;20.40;42.10;;;;;;5046796;28;20438;-47
2023/03/23 00:16:48;;;;;;;6.73;3.13;;;20.40;42.20;;;;;;5044669;28;20459;-47
2023/03/23 00:19:15;;;;;;;4.17;3.37;;;20.30;41.90;;;;;;5051137;28;20434;-45
2023/03/23 00:21:42;;;;;;;4.70;2.70;;;20.20;42.00;;;;;;5052983;28;20781;-46
2023/03/23 00:24:10;;;;;;;2.90;2.60;;;20.10;41.80;;;;;;5050158;28;20475;-47
2023/03/23 00:26:39;;;;;;;4.13;2.63;;;20.00;42.40;;;;;;5053550;28;20486;-45
2023/03/23 00:29:13;;;;;;;5.00;3.30;;;20.10;42.30;;;;;;5050400;28;20811;-47
2023/03/23 00:31:39;;;;;;;3.87;2.70;;;20.20;42.30;;;;;;5047688;28;20805;-46
2023/03/23 00:34:05;;;;;;;4.30;2.57;;;20.20;42.10;;;;;;5048742;28;20454;-46
2023/03/23 00:36:34;;;;;;;2.47;2.23;;;20.20;42.10;;;;;;5053287;28;20486;-46
2023/03/23 00:39:01;;;;;;;2.77;2.43;;;20.20;41.90;;;;;;5051775;28;20929;-47
2023/03/23 00:41:28;;;;;;;6.60;2.90;;;20.10;41.40;;;;;;5051087;28;20438;-47
2023/03/23 00:43:55;;;;;;;3.00;2.80;;;19.80;42.10;;;;;;5046338;28;20534;-45
2023/03/23 00:46:21;;;;;;;3.07;2.47;;;19.80;43.00;;;;;;5046941;28;20487;-46
2023/03/23 00:48:47;;;;;;;3.87;2.67;;;19.80;42.60;;;;;;5041660;28;20440;-47
2023/03/23 00:51:16;;;;;;;3.60;2.90;;;19.80;42.40;;;;;;5041272;28;20199;-52
2023/03/23 00:53:42;;;;;;;3.53;3.23;;;19.90;42.40;;;;;;5044931;28;20993;-47
2023/03/23 00:56:08;;;;;;;6.00;2.27;;;20.00;42.20;;;;;;5041777;28;20555;-53
2023/03/23 00:58:35;;;;;;;3.40;2.13;;;20.00;41.70;;;;;;5034317;28;20189;-48
2023/03/23 01:01:00;;;;;;;1.93;1.73;;;20.10;41.30;;;;;;5028896;28;21143;-46
2023/03/23 01:03:28;;;;;;;2.80;2.33;;;20.10;40.80;;;;;;5023055;28;20548;-46
2023/03/23 01:05:54;;;;;;;2.70;1.60;;;20.00;40.50;;;;;;5024549;28;20275;-47
2023/03/23 01:08:21;;;;;;;2.60;1.90;;;19.90;40.50;;;;;;5023299;28;20452;-49
2023/03/23 01:10:47;;;;;;;1.77;1.63;;;20.00;40.50;;;;;;5019627;28;20484;-45
2023/03/23 01:13:13;;;;;;;1.73;1.63;;;20.10;40.50;;;;;;5020816;28;20448;-46
2023/03/23 01:15:39;;;;;;;2.60;2.40;;;20.00;40.30;;;;;;5028432;28;20443;-48
2023/03/23 01:18:05;;;;;;;1.60;1.50;;;20.00;40.30;;;;;;5028965;28;20190;-46
2023/03/23 01:20:32;;;;;;;2.10;1.73;;;20.10;40.10;;;;;;5030074;28;20809;-46
2023/03/23 01:23:00;;;;;;;2.50;1.90;;;20.20;40.30;;;;;;5022919;28;20480;-50
2023/03/23 01:25:31;;;;;;;1.93;1.70;;;20.10;40.30;;;;;;5019547;28;20974;-46
2023/03/23 01:27:58;;;;;;;3.60;1.97;;;20.10;40.50;;;;;;5026055;28;20974;-46
2023/03/23 01:30:24;;;;;;;2.73;1.90;;;20.20;41.20;;;;;;5022931;28;20435;-46
2023/03/23 01:32:51;;;;;;;2.20;2.00;;;20.20;41.90;;;;;;5028573;28;20990;-46
2023/03/23 01:35:17;;;;;;;2.60;2.40;;;20.20;42.00;;;;;;5020591;28;20447;-47
2023/03/23 01:37:43;;;;;;;2.80;2.60;;;20.10;42.00;;;;;;5025947;28;20441;-46
2023/03/23 01:40:10;;;;;;;4.80;2.10;;;19.90;42.00;;;;;;5026648;28;20892;-45
2023/03/23 01:42:37;;;;;;;3.03;2.80;;;19.90;42.10;;;;;;5028209;28;20483;-47
2023/03/23 01:45:29;;;;;;;2.83;2.60;;;20.00;42.30;;;;;;5031535;28;20876;-46
2023/03/23 01:48:04;;;;;;;2.33;2.13;;;19.90;42.10;;;;;;5028994;28;20477;-45
2023/03/23 01:50:36;;;;;;;2.03;1.90;;;19.70;41.70;;;;;;5029218;28;20471;-47
2023/03/23 01:53:02;;;;;;;5.03;2.03;;;19.70;41.70;;;;;;5031307;28;20451;-48
2023/03/23 01:55:28;;;;;;;2.47;2.10;;;19.80;41.70;;;;;;5030728;28;21125;-47
2023/03/23 01:57:56;;;;;;;2.23;1.80;;;19.80;41.50;;;;;;5030267;28;20440;-47
2023/03/23 02:00:24;;;;;;;1.83;1.70;;;19.70;40.90;;;;;;5027392;28;20460;-46
2023/03/23 02:02:52;;;;;;;3.43;2.40;;;19.90;41.50;;;;;;5029643;28;20543;-46
2023/03/23 02:05:33;;;;;;;4.80;2.00;;;20.00;41.50;;;;;;5019171;28;20496;-46
2023/03/23 02:08:02;;;;;;;2.87;2.10;;;20.10;41.50;;;;;;5031981;28;20439;-46
2023/03/23 02:10:29;;;;;;;2.17;1.93;;;20.20;41.60;;;;;;5030601;28;20539;-46
2023/03/23 02:12:55;;;;;;;2.90;1.73;;;20.20;41.30;;;;;;5025604;28;20566;-49
2023/03/23 02:15:22;;;;;;;11.10;2.90;;;20.30;40.90;;;;;;5023088;28;20439;-48
2023/03/23 02:18:00;;;;;;;2.27;2.07;;;20.30;40.60;;;;;;5023843;28;20304;-46
2023/03/23 02:20:38;;;;;;;2.27;1.90;;;20.40;41.20;;;;;;5030699;28;20490;-46
2023/03/23 02:23:33;;;;;;;3.07;2.47;;;20.20;41.00;;;;;;5027521;28;20470;-46
2023/03/23 02:26:38;;;;;;;2.43;2.17;;;20.10;41.00;;;;;;5027593;28;20531;-47
2023/03/23 02:29:32;;;;;;;2.00;1.90;;;19.70;40.80;;;;;;5017892;28;20448;-46
2023/03/23 02:32:41;;;;;;;2.30;2.10;;;19.40;41.90;;;;;;5021954;28;20443;-45
2023/03/23 02:35:14;;;;;;;3.93;1.70;;;19.20;42.10;;;;;;5022833;28;20535;-47
2023/03/23 02:37:58;;;;;;;2.27;2.07;;;19.20;42.10;;;;;;5023468;28;20453;-47
2023/03/23 02:40:33;;;;;;;2.40;2.10;;;19.10;42.00;;;;;;5021460;28;20433;-47
2023/03/23 02:42:59;;;;;;;3.50;2.20;;;19.00;42.00;;;;;;5022988;28;20802;-50
2023/03/23 02:45:28;;;;;;;2.50;2.10;;;19.20;42.40;;;;;;5023562;28;20494;-47
2023/03/23 02:47:55;;;;;;;3.50;2.07;;;19.40;42.10;;;;;;5027710;28;20443;-45
2023/03/23 02:50:25;;;;;;;3.43;2.00;;;19.50;41.80;;;;;;5022863;28;20440;-47
2023/03/23 02:52:53;;;;;;;2.80;1.80;;;19.50;42.00;;;;;;5025181;28;21176;-47
2023/03/23 02:55:22;;;;;;;2.20;2.00;;;19.60;42.10;;;;;;5017474;28;20471;-46
2023/03/23 02:57:51;;;;;;;2.03;1.70;;;19.80;41.90;;;;;;5018419;28;21046;-48
2023/03/23 03:00:18;;;;;;;3.53;2.10;;;19.90;41.40;;;;;;5018665;28;20938;-50
2023/03/23 03:02:52;;;;;;;2.00;1.80;;;20.00;41.10;;;;;;5018616;28;20523;-46
2023/03/23 03:05:36;;;;;;;2.77;2.00;;;20.00;40.70;;;;;;5020619;28;20499;-47
2023/03/23 03:08:18;;;;;;;2.00;1.90;;;19.90;40.80;;;;;;5026248;28;20514;-46
2023/03/23 03:11:02;;;;;;;2.10;1.90;;;19.90;40.90;;;;;;5014840;28;20462;-47
2023/03/23 03:13:59;;;;;;;2.33;1.83;;;19.80;40.90;;;;;;5017184;28;20827;-48
2023/03/23 03:16:30;;;;;;;2.20;1.57;;;19.80;41.00;;;;;;5026571;28;20458;-46
2023/03/23 03:19:03;;;;;;;3.27;1.70;;;19.70;41.10;;;;;;5028399;28;20444;-47
2023/03/23 03:21:33;;;;;;;3.37;1.80;;;19.60;41.10;;;;;;5022561;28;20509;-49
2023/03/23 03:24:02;;;;;;;2.07;1.80;;;19.50;41.20;;;;;;5026070;28;20454;-46
2023/03/23 03:26:30;;;;;;;1.90;1.80;;;19.60;41.30;;;;;;5028509;28;20884;-46
2023/03/23 03:28:56;;;;;;;4.87;1.73;;;19.60;41.30;;;;;;5035649;28;20641;-47
2023/03/23 03:31:28;;;;;;;2.57;2.10;;;19.80;41.30;;;;;;5040444;28;20954;-47
2023/03/23 03:33:54;;;;;;;2.10;1.80;;;19.90;40.90;;;;;;5028944;28;20316;-45
2023/03/23 03:36:23;;;;;;;4.20;1.67;;;19.70;40.70;;;;;;5029309;28;21078;-48
2023/03/23 03:38:50;;;;;;;2.03;1.93;;;19.60;41.50;;;;;;5029499;28;20185;-45
2023/03/23 03:41:18;;;;;;;2.57;1.90;;;19.70;41.60;;;;;;5028988;28;20516;-47
2023/03/23 03:43:44;;;;;;;1.90;1.60;;;19.80;41.50;;;;;;5028790;28;20562;-46
2023/03/23 03:46:10;;;;;;;3.43;1.90;;;19.90;41.00;;;;;;5026607;28;20582;-45
2023/03/23 03:48:35;;;;;;;3.17;1.80;;;20.10;40.70;;;;;;5028912;28;20671;-47
2023/03/23 03:51:02;;;;;;;2.30;1.53;;;20.10;40.70;;;;;;5029501;28;20193;-48
2023/03/23 03:53:28;;;;;;;1.60;1.47;;;20.00;40.20;;;;;;5028983;28;20212;-46
2023/03/23 03:55:59;;;;;;;2.40;1.80;;;20.00;40.20;;;;;;5025787;28;20978;-46
2023/03/23 03:58:31;;;;;;;1.67;1.57;;;20.00;40.30;;;;;;5028398;28;20201;-46
2023/03/23 04:00:58;;;;;;;2.10;1.90;;;20.00;40.60;;;;;;5027664;28;20432;-45
2023/03/23 04:03:25;;;;;;;2.73;1.70;;;20.00;40.20;;;;;;5028886;28;20830;-46
2023/03/23 04:05:51;;;;;;;2.20;1.77;;;20.00;40.30;;;;;;5024856;28;20971;-46
2023/03/23 04:08:17;;;;;;;2.03;1.93;;;20.00;40.40;;;;;;5027803;28;20505;-48
2023/03/23 04:10:43;;;;;;;1.60;1.40;;;19.90;40.40;;;;;;5027859;28;20213;-47
2023/03/23 04:13:08;;;;;;;2.50;1.67;;;19.90;40.50;;;;;;5027275;28;20440;-46
2023/03/23 04:15:34;;;;;;;2.20;1.97;;;19.80;40.50;;;;;;5026735;28;20190;-45
2023/03/23 04:18:00;;;;;;;4.10;1.73;;;19.90;40.60;;;;;;5026949;28;20216;-45
2023/03/23 04:20:26;;;;;;;1.47;1.30;;;19.80;40.50;;;;;;5026570;28;20267;-46
2023/03/23 04:22:54;;;;;;;1.93;1.80;;;19.80;40.70;;;;;;5028620;28;20205;-47
2023/03/23 04:25:20;;;;;;;1.73;1.63;;;19.80;40.90;;;;;;5023513;28;21049;-45
2023/03/23 04:27:52;;;;;;;2.03;1.80;;;19.90;40.90;;;;;;5025400;28;20447;-46
2023/03/23 04:30:21;;;;;;;1.90;1.70;;;19.90;40.70;;;;;;5023794;28;20536;-48
2023/03/23 04:32:50;;;;;;;1.30;1.20;;;19.80;40.70;;;;;;5027869;28;20440;-45
2023/03/23 04:35:17;;;;;;;1.57;1.43;;;19.70;40.90;;;;;;5026716;28;20547;-48
2023/03/23 04:37:43;;;;;;;5.13;1.90;;;19.80;40.80;;;;;;5027029;28;20444;-46
2023/03/23 04:40:12;;;;;;;1.70;1.57;;;19.90;41.00;;;;;;5025293;28;20438;-46
2023/03/23 04:42:38;;;;;;;2.10;1.70;;;19.80;40.80;;;;;;5022401;28;20201;-49
2023/03/23 04:45:07;;;;;;;1.90;1.77;;;19.90;40.80;;;;;;5025312;28;20829;-46
2023/03/23 04:47:39;;;;;;;2.73;2.40;;;19.90;40.60;;;;;;5027272;28;20798;-47
2023/03/23 04:50:06;;;;;;;2.60;1.77;;;20.00;40.70;;;;;;5036368;28;20530;-48
2023/03/23 04:52:32;;;;;;;1.63;1.43;;;20.10;40.60;;;;;;5025933;28;20558;-49
2023/03/23 04:54:57;;;;;;;2.60;2.13;;;20.20;40.80;;;;;;5022718;28;20974;-48
2023/03/23 04:57:25;;;;;;;1.87;1.50;;;20.20;40.20;;;;;;5028301;28;20288;-51
2023/03/23 04:59:51;;;;;;;2.13;1.70;;;20.30;40.30;;;;;;5025682;28;20209;-46
2023/03/23 05:02:17;;;;;;;2.00;1.90;;;20.30;40.20;;;;;;5025485;28;20440;-46
2023/03/23 05:04:42;;;;;;;1.50;1.40;;;20.30;40.00;;;;;;5022177;28;20269;-47
2023/03/23 05:07:10;;;;;;;1.53;1.40;;;20.30;39.80;;;;;;5025741;28;20200;-46
2023/03/23 05:09:35;;;;;;;2.03;1.83;;;20.10;40.00;;;;;;5021375;28;20196;-47
2023/03/23 05:12:06;;;;;;;3.50;1.53;;;20.20;40.10;;;;;;5021751;28;20443;-47
2023/03/23 05:14:32;;;;;;;1.70;1.57;;;20.20;40.10;;;;;;5025501;28;20200;-46
2023/03/23 05:16:58;;;;;;;1.60;1.50;;;20.20;40.10;;;;;;5032574;28;20444;-48
2023/03/23 05:19:23;;;;;;;2.10;1.90;;;20.30;40.20;;;;;;5030158;28;20201;-48
2023/03/23 05:21:49;;;;;;;1.70;1.60;;;20.30;40.30;;;;;;5032974;28;20231;-46
2023/03/23 05:24:14;;;;;;;2.33;1.70;;;20.20;40.40;;;;;;5022552;28;20185;-47
2023/03/23 05:26:40;;;;;;;1.50;1.40;;;20.20;40.50;;;;;;5024409;28;20247;-49
2023/03/23 05:29:06;;;;;;;1.50;1.33;;;20.20;40.50;;;;;;5029837;28;20276;-47
2023/03/23 05:31:31;;;;;;;1.70;1.60;;;20.20;40.60;;;;;;5022699;28;20193;-49
2023/03/23 05:33:57;;;;;;;1.67;1.57;;;20.10;40.60;;;;;;5028104;28;20912;-45
2023/03/23 05:36:23;;;;;;;2.23;1.90;;;20.20;40.80;;;;;;5026097;28;20193;-46
2023/03/23 05:38:51;;;;;;;2.43;1.77;;;20.20;40.80;;;;;;5024316;28;20194;-47
2023/03/23 05:41:16;;;;;;;3.50;1.90;;;20.10;40.80;;;;;;5022742;28;20189;-45
2023/03/23 05:43:42;;;;;;;6.10;1.53;;;20.10;41.00;;;;;;5030069;28;20440;-44
2023/03/23 05:46:08;;;;;;;1.60;1.50;;;20.00;41.00;;;;;;5030880;28;20311;-46
2023/03/23 05:48:34;;;;;;;2.17;1.80;;;20.00;41.20;;;;;;5024352;28;20220;-48
2023/03/23 05:51:00;;;;;;;2.03;1.77;;;20.00;41.30;;;;;;5029549;28;20189;-47
2023/03/23 05:53:25;;;;;;;2.53;1.97;;;20.00;41.30;;;;;;5029092;28;20506;-46
2023/03/23 05:55:52;;;;;;;3.30;1.90;;;20.00;41.20;;;;;;5028771;28;20463;-47
2023/03/23 05:58:19;;;;;;;2.17;1.97;;;20.00;41.30;;;;;;5029883;28;20236;-47
2023/03/23 06:00:46;;;;;;;2.23;2.03;;;20.10;41.60;;;;;;5028650;28;20488;-45
2023/03/23 06:03:12;;;;;;;2.27;1.90;;;20.10;41.70;;;;;;5026861;28;20852;-44
2023/03/23 06:05:43;;;;;;;2.97;2.10;;;20.10;41.70;;;;;;5029344;28;20522;-48
2023/03/23 06:08:09;;;;;;;3.90;2.10;;;20.10;41.80;;;;;;5030085;28;20205;-44
2023/03/23 06:10:36;;;;;;;2.20;2.00;;;20.10;41.90;;;;;;5016683;28;20445;-49
2023/03/23 06:13:02;;;;;;;3.77;2.20;;;20.10;42.10;;;;;;5030676;28;20796;-44
2023/03/23 06:15:31;;;;;;;5.07;2.40;;;20.10;42.70;;;;;;5018484;28;20444;-44
2023/03/23 06:17:58;;;;;;;3.20;2.17;;;20.10;42.80;;;;;;5022870;28;20444;-44
2023/03/23 06:20:24;;;;;;;4.20;2.50;;;20.10;42.80;;;;;;5018826;28;20440;-45
2023/03/23 06:22:51;;;;;;;2.60;2.20;;;20.20;42.90;;;;;;5017205;28;20440;-44
2023/03/23 06:25:17;;;;;;;2.60;2.33;;;20.10;43.70;;;;;;5022346;28;20688;-45
2023/03/23 06:27:43;;;;;;;3.30;2.00;;;20.20;43.10;;;;;;5025108;28;20523;-45
2023/03/23 06:30:10;;;;;;;3.30;2.10;;;20.20;43.10;;;;;;5029691;28;20593;-45
2023/03/23 06:32:37;;;;;;;2.37;2.17;;;20.20;43.30;;;;;;5025050;28;20786;-45
2023/03/23 06:35:03;;;;;;;3.10;1.90;;;20.30;43.10;;;;;;5020292;28;20821;-47
2023/03/23 06:37:30;;;;;;;2.27;2.07;;;20.20;42.50;;;;;;5024604;28;20440;-47
2023/03/23 06:39:55;;;;;;;1.77;1.67;;;20.10;41.90;;;;;;5028102;28;20444;-45
2023/03/23 06:42:24;;;;;;;4.30;2.03;;;20.10;41.70;;;;;;5026595;28;20498;-44
2023/03/23 06:44:50;;;;;;;4.50;2.10;;;20.10;41.60;;;;;;5024207;28;20205;-45
2023/03/23 06:47:16;;;;;;;3.90;1.80;;;20.20;41.80;;;;;;5030976;28;20889;-45
2023/03/23 06:49:42;;;;;;;1.97;1.77;;;20.20;41.70;;;;;;5029843;28;20494;-44
2023/03/23 06:52:07;;;;;;;2.90;2.00;;;20.30;41.80;;;;;;5025609;28;20572;-44
2023/03/23 06:54:33;;;;;;;2.90;2.10;;;20.30;42.00;;;;;;5029127;28;20668;-47
2023/03/23 06:56:59;;;;;;;3.30;3.07;;;20.30;42.30;;;;;;5029439;28;20233;-44
2023/03/23 06:59:24;;;;;;;3.50;2.40;;;20.30;43.30;;;;;;5027778;28;20742;-45
2023/03/23 07:01:50;;;;;;;3.90;2.33;;;20.20;43.20;;;;;;5027429;28;20216;-46
2023/03/23 07:04:16;;;;;;;2.37;2.13;;;20.10;43.40;;;;;;5026065;28;20212;-45
2023/03/23 07:06:41;;;;;;;2.80;2.13;;;20.00;43.60;;;;;;5037228;28;20236;-45
2023/03/23 07:09:07;;;;;;;2.57;2.37;;;20.00;43.80;;;;;;5026108;28;20247;-46
2023/03/23 07:11:33;;;;;;;2.27;1.73;;;20.00;43.70;;;;;;5039991;28;20293;-46
2023/03/23 07:13:59;;;;;;;2.43;1.70;;;19.70;43.00;;;;;;5038508;28;20463;-46
2023/03/23 07:16:26;;;;;;;2.40;1.97;;;19.50;43.20;;;;;;5028671;28;20228;-44
2023/03/23 07:18:51;;;;;;;2.93;2.30;;;19.50;43.20;;;;;;5028557;28;20209;-44
2023/03/23 07:21:17;;;;;;;2.13;1.90;;;19.20;42.80;;;;;;5023462;28;20448;-46
2023/03/23 07:23:42;;;;;;;2.30;2.10;;;19.20;43.20;;;;;;5028691;28;20668;-49
2023/03/23 07:26:08;;;;;;;3.10;2.20;;;19.30;43.10;;;;;;5023380;28;20225;-45
2023/03/23 07:28:34;;;;;;;2.00;1.77;;;19.20;43.00;;;;;;5025703;28;20197;-46
2023/03/23 07:30:59;;;;;;;2.10;1.90;;;19.30;43.10;;;;;;5029038;28;20193;-44
2023/03/23 07:33:26;;;;;;;2.60;2.07;;;19.20;43.00;;;;;;5028108;28;20570;-44
2023/03/23 07:35:51;;;;;;;2.23;1.87;;;19.20;43.20;;;;;;5022714;28;20561;-45
2023/03/23 07:38:17;;;;;;;4.87;2.00;;;19.30;43.30;;;;;;5036401;28;20522;-44
2023/03/23 07:40:43;;;;;;;2.57;2.07;;;19.40;43.00;;;;;;5028116;28;20602;-45
2023/03/23 07:43:09;;;;;;;2.43;1.50;;;19.30;42.90;;;;;;5030985;28;20531;-44
2023/03/23 07:45:35;;;;;;;1.80;1.70;;;19.40;43.30;;;;;;5028913;28;21073;-45
2023/03/23 07:48:00;;;;;;;1.80;1.70;;;19.40;43.20;;;;;;5030801;28;20204;-47
2023/03/23 07:50:26;;;;;;;2.40;1.97;;;19.50;43.20;;;;;;5029139;28;20197;-44
2023/03/23 07:52:57;;;;;;;2.80;1.90;;;19.70;43.20;;;;;;5030274;28;20575;-44
2023/03/23 07:55:24;;;;;;;3.73;1.97;;;19.80;42.70;;;;;;5026296;28;20471;-44
2023/03/23 07:57:53;;;;;;;1.83;1.63;;;19.70;42.80;;;;;;5026268;28;20997;-45
2023/03/23 08:00:23;;;;;;;2.30;1.47;;;19.70;43.10;;;;;;5029848;28;20492;-46
2023/03/23 08:02:55;;;;;;;1.83;1.73;;;19.90;42.80;;;;;;5031242;28;20798;-46
2023/03/23 08:05:21;;;;;;;3.00;2.20;;;20.10;42.50;;;;;;5038100;28;20526;-46
2023/03/23 08:07:47;;;;;;;3.20;2.30;;;20.20;42.40;;;;;;5030529;28;20505;-44
2023/03/23 08:10:14;;;;;;;3.63;2.07;;;20.30;42.40;;;;;;5041028;28;20431;-45
2023/03/23 08:12:42;;;;;;;3.17;2.17;;;20.50;42.30;;;;;;5050486;28;20522;-45
2023/03/23 08:15:12;;;;;;;2.40;2.20;;;20.60;42.40;;;;;;5050235;28;20930;-45
2023/03/23 08:17:38;;;;;;;2.60;1.60;;;20.60;42.10;;;;;;5050504;28;20446;-45
2023/03/23 08:20:09;;;;;;;2.47;2.13;;;20.50;42.10;;;;;;5050527;28;20438;-45
2023/03/23 08:22:35;;;;;;;2.97;1.90;;;20.30;42.20;;;;;;5025528;28;20515;-45
2023/03/23 08:25:03;;;;;;;5.00;2.53;;;20.20;42.80;;;;;;5023802;28;20456;-45
2023/03/23 08:27:29;;;;;;;3.97;1.80;;;20.00;43.40;;;;;;5029916;28;20454;-45
2023/03/23 08:29:54;;;;;;;3.20;2.20;;;20.10;43.50;;;;;;5028127;28;20448;-45
2023/03/23 08:32:20;;;;;;;4.43;1.90;;;20.20;43.80;;;;;;5028382;28;20251;-46
2023/03/23 08:34:45;;;;;;;2.17;1.90;;;20.00;43.80;;;;;;5029207;28;20645;-45
2023/03/23 08:37:11;;;;;;;2.00;1.90;;;20.00;44.30;;;;;;5030364;28;21025;-45
2023/03/23 08:39:38;;;;;;;3.10;2.13;;;20.00;44.50;;;;;;5029743;28;20192;-45
2023/03/23 08:42:03;;;;;;;3.53;1.67;;;19.70;44.80;;;;;;5033178;28;20197;-47
2023/03/23 08:44:29;;;;;;;6.80;1.60;;;19.60;45.00;;;;;;5032663;28;20450;-45
2023/03/23 08:46:56;;;;;;;2.77;2.07;;;19.90;45.20;;;;;;5032509;28;20224;-47
2023/03/23 08:49:23;;;;;;;1.73;1.63;;;20.10;44.90;;;;;;5031798;28;20242;-45
2023/03/23 08:51:49;;;;;;;2.10;1.77;;;20.10;45.00;;;;;;5033453;28;20444;-45
2023/03/23 08:54:15;;;;;;;2.20;2.00;;;20.20;45.10;;;;;;5033005;28;21360;-45
2023/03/23 08:56:41;;;;;;;2.93;2.00;;;20.20;45.20;;;;;;5050982;28;20259;-46
2023/03/23 08:59:07;;;;;;;1.93;1.83;;;20.30;45.30;;;;;;5039057;28;20925;-45
2023/03/23 09:01:33;;;;;;;2.60;2.13;;;20.30;45.20;;;;;;5039818;28;20419;-45
2023/03/23 09:03:59;;;;;;;5.37;2.10;;;20.10;45.20;;;;;;5053978;28;20588;-46
2023/03/23 09:06:25;;;;;;;2.10;1.90;;;20.00;45.60;;;;;;5053210;28;20224;-46
2023/03/23 09:08:51;;;;;;;3.43;2.00;;;19.80;46.10;;;;;;5032927;28;20443;-45
2023/03/23 09:11:17;;;;;;;3.87;2.20;;;19.90;46.10;;;;;;5032678;28;20435;-45
2023/03/23 09:13:43;;;;;;;3.43;1.90;;;19.70;46.50;;;;;;5033183;28;20444;-45
2023/03/23 09:16:10;;;;;;;2.83;1.63;;;19.80;46.40;;;;;;5031083;28;20450;-45
2023/03/23 09:18:35;;;;;;;2.50;2.23;;;20.00;46.40;;;;;;5032786;28;20208;-47
2023/03/23 09:21:03;;;;;;;3.13;2.33;;;20.00;46.40;;;;;;5032266;28;20440;-45
2023/03/23 09:23:28;;;;;;;5.20;2.43;;;20.00;46.50;;;;;;5032067;28;20209;-46
2023/03/23 09:25:54;;;;;;;1.87;1.77;;;20.20;46.30;;;;;;5031356;28;20494;-47
2023/03/23 09:28:20;;;;;;;2.70;2.07;;;20.20;46.10;;;;;;5032490;28;20197;-45
2023/03/23 09:30:47;;;;;;;2.03;1.80;;;20.30;46.10;;;;;;5032296;28;20252;-45
2023/03/23 09:33:13;;;;;;;1.90;1.70;;;20.50;45.80;;;;;;5031039;28;20845;-47
2023/03/23 09:35:41;;;;;;;1.80;1.70;;;20.60;45.70;;;;;;5028100;28;20498;-45
2023/03/23 09:38:08;;;;;;;2.63;2.30;;;20.50;45.90;;;;;;5027071;28;20441;-48
2023/03/23 09:41:08;;;;;;;3.50;1.90;;;20.40;45.60;;;;;;5026554;28;20472;-45
2023/03/23 09:44:04;;;;;;;3.50;2.80;;;20.50;45.60;;;;;;4970196;28;20463;-49
2023/03/23 09:46:46;;;;;;;2.30;2.10;;;20.40;45.60;;;;;;5035572;28;20533;-50
2023/03/23 09:49:19;;;;;;;2.80;1.80;;;20.30;45.70;;;;;;5027136;28;20974;-45
2023/03/23 09:51:55;;;;;;;1.97;1.77;;;20.50;45.90;;;;;;5028941;28;20448;-47
2023/03/23 09:54:50;;;;;;;2.83;1.73;;;20.40;45.60;;;;;;5027745;28;20799;-45
2023/03/23 09:57:35;;;;;;;6.17;2.17;;;19.90;45.60;;;;;;5024158;28;20534;-44
2023/03/23 10:00:10;;;;;;;2.07;1.60;;;19.60;46.60;;;;;;5027669;28;20972;-46
2023/03/23 10:03:17;;;;;;;4.10;1.60;;;19.70;46.70;;;;;;5025958;28;20482;-44
2023/03/23 10:05:49;;;;;;;4.67;2.53;;;19.60;46.70;;;;;;4985894;28;20497;-45
2023/03/23 10:08:27;;;;;;;2.13;1.40;;;19.40;46.70;;;;;;5024382;28;20538;-44
2023/03/23 10:11:21;;;;;;;2.40;1.63;;;19.60;47.00;;;;;;5028257;28;20456;-49
2023/03/23 10:14:05;;;;;;;2.47;1.90;;;19.70;46.60;;;;;;5032529;28;20440;-45
2023/03/23 10:16:49;;;;;;;2.60;1.60;;;19.60;46.80;;;;;;5031182;28;20462;-45
2023/03/23 10:19:20;;;;;;;1.70;1.60;;;19.60;47.00;;;;;;5030705;28;20490;-45
2023/03/23 10:21:52;;;;;;;3.23;1.87;;;19.50;47.40;;;;;;5025799;28;20456;-47
2023/03/23 10:24:24;;;;;;;2.80;2.47;;;19.60;47.40;;;;;;5033065;28;20963;-46
2023/03/23 10:27:22;;;;;;;3.20;1.60;;;19.50;47.30;;;;;;5026317;28;20986;-44
2023/03/23 10:30:13;;;;;;;2.33;1.80;;;19.50;47.60;;;;;;5021655;28;21510;-44
2023/03/23 10:32:53;;;;;;;1.83;1.70;;;19.70;47.90;;;;;;5027443;28;20462;-46
2023/03/23 10:35:26;;;;;;;4.13;1.70;;;19.90;47.40;;;;;;5024263;28;20448;-46
2023/03/23 10:37:58;;;;;;;2.73;1.53;;;20.20;47.10;;;;;;5024746;28;20563;-47
2023/03/23 10:40:27;;;;;;;2.13;1.80;;;20.30;47.00;;;;;;5029193;28;20444;-45
2023/03/23 10:42:54;;;;;;;2.83;1.77;;;20.50;46.60;;;;;;5022197;28;20441;-47
2023/03/23 10:45:26;;;;;;;3.03;1.63;;;20.50;46.20;;;;;;5023802;28;20487;-50
2023/03/23 10:48:01;;;;;;;2.70;1.83;;;20.60;46.30;;;;;;5021054;28;20449;-48
2023/03/23 10:50:37;;;;;;;2.23;1.80;;;20.80;46.20;;;;;;5020609;28;20859;-44
2023/03/23 10:53:32;;;;;;;2.40;1.80;;;21.10;45.90;;;;;;5024063;28;20439;-46
2023/03/23 10:55:59;;;;;;;2.30;1.60;;;21.20;45.60;;;;;;5024866;28;20522;-50
2023/03/23 10:58:31;;;;;;;2.00;1.80;;;21.10;45.60;;;;;;5032442;28;20435;-46
2023/03/23 11:00:58;;;;;;;1.80;1.60;;;20.90;45.50;;;;;;5030093;28;20432;-47
2023/03/23 11:03:32;;;;;;;2.97;1.57;;;20.90;45.80;;;;;;5024958;28;20896;-45
2023/03/23 11:06:08;;;;;;;2.20;1.87;;;21.10;45.80;;;;;;5025153;28;20516;-45
2023/03/23 11:08:55;;;;;;;2.07;1.90;;;21.40;45.90;;;;;;5028103;28;22108;-44
2023/03/23 11:11:29;;;;;;;2.37;2.20;;;21.40;45.70;;;;;;5031579;28;20459;-45
2023/03/23 11:14:14;;;;;;;1.63;1.53;;;21.30;46.00;;;;;;5028155;28;20439;-47
2023/03/23 11:16:45;;;;;;;1.70;1.60;;;21.40;46.40;;;;;;5025640;28;20452;-44
2023/03/23 11:19:20;;;;;;;2.40;2.00;;;21.40;46.00;;;;;;5028375;28;20471;-48
2023/03/23 11:21:49;;;;;;;2.80;1.60;;;21.30;46.00;;;;;;5024684;28;20455;-50
2023/03/23 11:24:16;;;;;;;3.93;1.80;;;21.30;46.30;;;;;;5027204;28;20496;-47
2023/03/23 11:26:44;;;;;;;1.63;1.53;;;21.30;46.00;;;;;;5025977;28;20578;-49
2023/03/23 11:29:11;;;;;;;1.83;1.70;;;21.30;45.60;;;;;;5027040;28;20601;-45
2023/03/23 11:31:41;;;;;;;3.37;1.67;;;21.40;45.30;;;;;;5027684;28;20444;-46
2023/03/23 11:34:20;;;;;;;1.83;1.70;;;21.40;45.40;;;;;;5025616;28;20797;-44
2023/03/23 11:36:53;;;;;;;1.90;1.80;;;21.50;45.90;;;;;;5027484;28;20455;-45
2023/03/23 11:39:28;;;;;;;6.40;2.03;;;21.60;45.70;;;;;;5027236;28;20448;-45
2023/03/23 11:42:17;;;;;;;2.30;2.10;;;21.90;46.00;;;;;;5026842;28;20534;-45
2023/03/23 11:44:45;;;;;;;2.07;1.87;;;21.90;45.80;;;;;;5020831;28;20788;-46
2023/03/23 11:47:42;;;;;;;2.30;1.83;;;22.00;46.70;;;;;;5025172;28;20849;-45
2023/03/23 11:50:17;;;;;;;2.83;1.83;;;21.50;45.80;;;;;;5033235;28;20865;-45
2023/03/23 11:52:42;;;;;;;2.40;1.90;;;21.30;46.20;;;;;;5019927;28;20789;-44
2023/03/23 11:55:32;;;;;;;2.50;1.70;;;21.30;46.10;;;;;;5019476;28;20451;-45
2023/03/23 11:58:07;;;;;;;1.90;1.67;;;21.40;46.50;;;;;;5028206;28;20193;-44
2023/03/23 12:00:33;;;;;;;4.00;2.20;;;21.30;45.90;;;;;;5024947;28;20444;-47
2023/03/23 12:03:33;;;;;;;2.50;2.23;;;21.40;46.00;;;;;;5025263;28;20527;-46
2023/03/23 12:05:59;;;;;;;1.47;1.37;;;21.30;45.90;;;;;;5031989;28;20540;-47
2023/03/23 12:08:30;;;;;;;2.70;1.83;;;21.20;45.60;;;;;;5036616;28;20447;-45
2023/03/23 12:10:58;;;;;;;2.20;2.10;;;21.30;45.90;;;;;;5023339;28;20561;-46
2023/03/23 12:14:00;;;;;;;1.60;1.50;;;21.50;45.80;;;;;;5028810;28;20942;-45
2023/03/23 12:16:34;;;;;;;2.30;2.10;;;21.50;45.50;;;;;;4985970;28;20455;-46
2023/03/23 12:19:30;;;;;;;2.70;2.00;;;21.70;46.40;;;;;;5033994;28;20423;-46
2023/03/23 12:22:22;;;;;;;4.03;1.90;;;21.40;46.40;;;;;;5018077;28;20865;-46
2023/03/23 12:25:01;;;;;;;3.80;2.30;;;21.40;46.20;;;;;;5019034;28;20458;-49
2023/03/23 12:27:32;;;;;;;2.10;2.00;;;21.50;46.30;;;;;;5030097;28;20459;-46
2023/03/23 12:30:31;;;;;;;2.03;1.90;;;21.50;45.80;;;;;;5029088;28;20451;-45
2023/03/23 12:33:15;;;;;;;4.27;2.20;;;21.60;45.30;;;;;;5020818;28;20555;-47
2023/03/23 12:35:49;;;;;;;2.20;1.90;;;21.60;45.10;;;;;;5029710;28;20535;-47
2023/03/23 12:38:40;;;;;;;2.10;1.90;;;21.80;45.30;;;;;;5031678;28;20443;-46
2023/03/23 12:41:26;;;;;;;2.87;2.57;;;22.00;45.00;;;;;;5029036;28;20479;-45
2023/03/23 12:44:10;;;;;;;3.97;2.00;;;22.20;45.00;;;;;;5032136;28;20440;-49
2023/03/23 12:47:02;;;;;;;3.40;1.80;;;22.30;46.70;;;;;;5027622;28;20832;-48
2023/03/23 12:49:40;;;;;;;3.33;2.07;;;22.40;46.60;;;;;;5009240;28;20456;-46
2023/03/23 12:52:40;;;;;;;2.50;1.90;;;22.50;47.10;;;;;;5031103;28;20455;-47
2023/03/23 12:55:17;;;;;;;2.30;2.10;;;22.50;48.10;;;;;;5018720;28;20447;-45
2023/03/23 12:58:05;;;;;;;2.73;1.93;;;22.30;48.60;;;;;;5030998;28;20501;-47
2023/03/23 13:00:55;;;;;;;3.47;1.80;;;22.20;48.90;;;;;;5031254;28;20456;-47
2023/03/23 13:03:49;;;;;;;2.57;1.73;;;22.30;48.60;;;;;;5028428;28;20576;-47
2023/03/23 13:06:40;;;;;;;2.80;2.10;;;22.50;48.40;;;;;;5012680;28;20570;-46
2023/03/23 13:09:10;;;;;;;3.57;2.17;;;22.60;48.10;;;;;;5031167;28;20962;-48